sensor_id;sensor_type;location;lat;lon;timestamp;P1;durP1;ratioP1;P2;durP2;ratioP2
42614;SDS011;28754;47.700;7.924;2024-03-08T00:00:27;40.83;;;23.52;;
42614;SDS011;28754;47.700;7.924;2024-03-08T00:03:14;43.42;;;22.20;;
42614;SDS011;28754;47.700;7.924;2024-03-08T00:06:01;45.45;;;24.80;;
42614;SDS011;28754;47.700;7.924;2024-03-08T00:08:48;46.53;;;24.45;;
42614;SDS011;28754;47.700;7.924;2024-03-08T00:11:35;44.13;;;25.35;;
42614;SDS011;28754;47.700;7.924;2024-03-08T00:14:21;43.63;;;22.02;;
42614;SDS011;28754;47.700;7.924;2024-03-08T00:17:08;43.72;;;25.17;;
42614;SDS011;28754;47.700;7.924;2024-03-08T00:19:55;42.42;;;24.00;;
42614;SDS011;28754;47.700;7.924;2024-03-08T00:22:41;38.08;;;21.83;;
42614;SDS011;28754;47.700;7.924;2024-03-08T00:25:29;39.75;;;22.63;;
42614;SDS011;28754;47.700;7.924;2024-03-08T00:28:16;41.38;;;22.35;;
42614;SDS011;28754;47.700;7.924;2024-03-08T00:31:04;42.13;;;22.40;;
42614;SDS011;28754;47.700;7.924;2024-03-08T00:33:52;43.30;;;22.65;;
42614;SDS011;28754;47.700;7.924;2024-03-08T00:36:39;41.38;;;22.38;;
42614;SDS011;28754;47.700;7.924;2024-03-08T00:39:26;41.08;;;23.15;;
42614;SDS011;28754;47.700;7.924;2024-03-08T00:42:12;43.72;;;21.98;;
42614;SDS011;28754;47.700;7.924;2024-03-08T00:44:59;40.97;;;22.73;;
42614;SDS011;28754;47.700;7.924;2024-03-08T00:47:46;40.38;;;23.45;;
42614;SDS011;28754;47.700;7.924;2024-03-08T00:50:33;43.15;;;23.58;;
42614;SDS011;28754;47.700;7.924;2024-03-08T00:53:19;45.45;;;23.13;;
42614;SDS011;28754;47.700;7.924;2024-03-08T00:56:07;39.65;;;23.77;;
42614;SDS011;28754;47.700;7.924;2024-03-08T00:58:57;43.50;;;23.80;;
42614;SDS011;28754;47.700;7.924;2024-03-08T01:01:45;37.53;;;21.50;;
42614;SDS011;28754;47.700;7.924;2024-03-08T01:04:32;40.85;;;22.25;;
42614;SDS011;28754;47.700;7.924;2024-03-08T01:07:19;42.13;;;22.90;;
42614;SDS011;28754;47.700;7.924;2024-03-08T01:10:05;36.47;;;20.88;;
42614;SDS011;28754;47.700;7.924;2024-03-08T01:12:55;41.33;;;22.00;;
42614;SDS011;28754;47.700;7.924;2024-03-08T01:15:42;41.70;;;22.58;;
42614;SDS011;28754;47.700;7.924;2024-03-08T01:18:29;38.67;;;21.13;;
42614;SDS011;28754;47.700;7.924;2024-03-08T01:21:16;34.15;;;20.40;;
42614;SDS011;28754;47.700;7.924;2024-03-08T01:24:03;36.53;;;22.08;;
42614;SDS011;28754;47.700;7.924;2024-03-08T01:26:50;35.70;;;20.58;;
42614;SDS011;28754;47.700;7.924;2024-03-08T01:29:36;36.30;;;19.15;;
42614;SDS011;28754;47.700;7.924;2024-03-08T01:32:23;37.47;;;19.02;;
42614;SDS011;28754;47.700;7.924;2024-03-08T01:35:10;36.35;;;19.30;;
42614;SDS011;28754;47.700;7.924;2024-03-08T01:37:56;36.78;;;20.02;;
42614;SDS011;28754;47.700;7.924;2024-03-08T01:40:43;36.97;;;19.55;;
42614;SDS011;28754;47.700;7.924;2024-03-08T01:43:30;34.40;;;20.90;;
42614;SDS011;28754;47.700;7.924;2024-03-08T01:46:17;37.05;;;20.38;;
42614;SDS011;28754;47.700;7.924;2024-03-08T01:49:07;36.08;;;20.10;;
42614;SDS011;28754;47.700;7.924;2024-03-08T01:51:54;36.80;;;20.02;;
42614;SDS011;28754;47.700;7.924;2024-03-08T01:54:42;33.05;;;19.63;;
42614;SDS011;28754;47.700;7.924;2024-03-08T01:57:29;35.05;;;19.45;;
42614;SDS011;28754;47.700;7.924;2024-03-08T02:00:19;32.33;;;19.80;;
42614;SDS011;28754;47.700;7.924;2024-03-08T02:03:07;37.38;;;20.92;;
42614;SDS011;28754;47.700;7.924;2024-03-08T02:05:54;35.47;;;18.05;;
42614;SDS011;28754;47.700;7.924;2024-03-08T02:08:41;36.85;;;19.75;;
42614;SDS011;28754;47.700;7.924;2024-03-08T02:11:32;33.72;;;17.58;;
42614;SDS011;28754;47.700;7.924;2024-03-08T02:14:21;31.80;;;18.60;;
42614;SDS011;28754;47.700;7.924;2024-03-08T02:17:09;33.33;;;19.17;;
42614;SDS011;28754;47.700;7.924;2024-03-08T02:19:57;36.30;;;19.77;;
42614;SDS011;28754;47.700;7.924;2024-03-08T02:22:44;30.30;;;17.65;;
42614;SDS011;28754;47.700;7.924;2024-03-08T02:25:31;33.33;;;19.85;;
42614;SDS011;28754;47.700;7.924;2024-03-08T02:28:18;30.73;;;16.13;;
42614;SDS011;28754;47.700;7.924;2024-03-08T02:31:05;28.85;;;16.30;;
42614;SDS011;28754;47.700;7.924;2024-03-08T02:33:54;25.90;;;15.57;;
42614;SDS011;28754;47.700;7.924;2024-03-08T02:36:41;29.10;;;16.30;;
42614;SDS011;28754;47.700;7.924;2024-03-08T02:39:28;28.15;;;15.18;;
42614;SDS011;28754;47.700;7.924;2024-03-08T02:42:15;29.42;;;16.58;;
42614;SDS011;28754;47.700;7.924;2024-03-08T02:45:01;26.42;;;15.02;;
42614;SDS011;28754;47.700;7.924;2024-03-08T02:47:51;26.90;;;16.45;;
42614;SDS011;28754;47.700;7.924;2024-03-08T02:50:38;26.20;;;14.40;;
42614;SDS011;28754;47.700;7.924;2024-03-08T02:53:30;29.10;;;14.98;;
42614;SDS011;28754;47.700;7.924;2024-03-08T02:56:17;27.27;;;15.10;;
42614;SDS011;28754;47.700;7.924;2024-03-08T02:59:04;22.00;;;14.20;;
42614;SDS011;28754;47.700;7.924;2024-03-08T03:01:51;25.92;;;14.98;;
42614;SDS011;28754;47.700;7.924;2024-03-08T03:04:41;21.25;;;13.85;;
42614;SDS011;28754;47.700;7.924;2024-03-08T03:07:28;31.45;;;16.10;;
42614;SDS011;28754;47.700;7.924;2024-03-08T03:10:16;24.80;;;13.45;;
42614;SDS011;28754;47.700;7.924;2024-03-08T03:13:03;22.00;;;12.98;;
42614;SDS011;28754;47.700;7.924;2024-03-08T03:15:50;19.73;;;11.77;;
42614;SDS011;28754;47.700;7.924;2024-03-08T03:18:37;23.13;;;14.50;;
42614;SDS011;28754;47.700;7.924;2024-03-08T03:21:24;23.73;;;15.30;;
42614;SDS011;28754;47.700;7.924;2024-03-08T03:24:14;23.77;;;13.68;;
42614;SDS011;28754;47.700;7.924;2024-03-08T03:27:02;23.45;;;12.18;;
42614;SDS011;28754;47.700;7.924;2024-03-08T03:29:56;20.65;;;10.70;;
42614;SDS011;28754;47.700;7.924;2024-03-08T03:32:43;21.08;;;11.77;;
42614;SDS011;28754;47.700;7.924;2024-03-08T03:35:32;19.17;;;10.85;;
42614;SDS011;28754;47.700;7.924;2024-03-08T03:38:20;23.52;;;11.68;;
42614;SDS011;28754;47.700;7.924;2024-03-08T03:41:09;19.55;;;11.65;;
42614;SDS011;28754;47.700;7.924;2024-03-08T03:43:56;18.40;;;10.70;;
42614;SDS011;28754;47.700;7.924;2024-03-08T03:46:43;20.20;;;11.82;;
42614;SDS011;28754;47.700;7.924;2024-03-08T03:49:30;23.30;;;11.95;;
42614;SDS011;28754;47.700;7.924;2024-03-08T03:52:16;19.80;;;11.93;;
42614;SDS011;28754;47.700;7.924;2024-03-08T03:55:04;21.58;;;12.93;;
42614;SDS011;28754;47.700;7.924;2024-03-08T03:57:50;25.98;;;13.48;;
42614;SDS011;28754;47.700;7.924;2024-03-08T04:00:38;20.30;;;11.88;;
42614;SDS011;28754;47.700;7.924;2024-03-08T04:03:25;20.98;;;12.60;;
42614;SDS011;28754;47.700;7.924;2024-03-08T04:06:11;21.20;;;11.20;;
42614;SDS011;28754;47.700;7.924;2024-03-08T04:08:58;23.02;;;11.27;;
42614;SDS011;28754;47.700;7.924;2024-03-08T04:11:45;18.42;;;11.43;;
42614;SDS011;28754;47.700;7.924;2024-03-08T04:14:32;20.60;;;11.15;;
42614;SDS011;28754;47.700;7.924;2024-03-08T04:17:18;24.00;;;13.25;;
42614;SDS011;28754;47.700;7.924;2024-03-08T04:20:05;22.25;;;12.80;;
42614;SDS011;28754;47.700;7.924;2024-03-08T04:23:00;25.10;;;12.13;;
42614;SDS011;28754;47.700;7.924;2024-03-08T04:25:47;22.23;;;11.68;;
42614;SDS011;28754;47.700;7.924;2024-03-08T04:28:34;20.90;;;11.88;;
42614;SDS011;28754;47.700;7.924;2024-03-08T04:31:20;24.63;;;13.15;;
42614;SDS011;28754;47.700;7.924;2024-03-08T04:34:07;22.10;;;13.30;;
42614;SDS011;28754;47.700;7.924;2024-03-08T04:36:54;21.25;;;12.32;;
42614;SDS011;28754;47.700;7.924;2024-03-08T04:39:43;21.80;;;12.95;;
42614;SDS011;28754;47.700;7.924;2024-03-08T04:42:30;22.02;;;13.05;;
42614;SDS011;28754;47.700;7.924;2024-03-08T04:45:18;24.00;;;12.07;;
42614;SDS011;28754;47.700;7.924;2024-03-08T04:48:05;19.30;;;11.60;;
42614;SDS011;28754;47.700;7.924;2024-03-08T04:50:54;23.75;;;13.38;;
42614;SDS011;28754;47.700;7.924;2024-03-08T04:53:41;23.15;;;13.57;;
42614;SDS011;28754;47.700;7.924;2024-03-08T04:56:28;22.83;;;13.40;;
42614;SDS011;28754;47.700;7.924;2024-03-08T04:59:14;22.52;;;12.85;;
42614;SDS011;28754;47.700;7.924;2024-03-08T05:02:01;31.45;;;17.30;;
42614;SDS011;28754;47.700;7.924;2024-03-08T05:04:48;25.20;;;15.57;;
42614;SDS011;28754;47.700;7.924;2024-03-08T05:07:35;25.75;;;13.82;;
42614;SDS011;28754;47.700;7.924;2024-03-08T05:10:22;29.35;;;15.98;;
42614;SDS011;28754;47.700;7.924;2024-03-08T05:13:08;25.80;;;15.57;;
42614;SDS011;28754;47.700;7.924;2024-03-08T05:15:56;25.85;;;14.60;;
42614;SDS011;28754;47.700;7.924;2024-03-08T05:18:44;29.08;;;15.27;;
42614;SDS011;28754;47.700;7.924;2024-03-08T05:21:32;24.65;;;13.57;;
42614;SDS011;28754;47.700;7.924;2024-03-08T05:24:19;28.70;;;15.98;;
42614;SDS011;28754;47.700;7.924;2024-03-08T05:27:06;26.45;;;14.00;;
42614;SDS011;28754;47.700;7.924;2024-03-08T05:29:52;27.00;;;15.95;;
42614;SDS011;28754;47.700;7.924;2024-03-08T05:32:39;27.85;;;14.45;;
42614;SDS011;28754;47.700;7.924;2024-03-08T05:35:26;26.42;;;13.60;;
42614;SDS011;28754;47.700;7.924;2024-03-08T05:38:12;23.63;;;13.05;;
42614;SDS011;28754;47.700;7.924;2024-03-08T05:40:59;32.45;;;18.45;;
42614;SDS011;28754;47.700;7.924;2024-03-08T05:43:47;24.50;;;13.43;;
42614;SDS011;28754;47.700;7.924;2024-03-08T05:46:34;24.95;;;13.82;;
42614;SDS011;28754;47.700;7.924;2024-03-08T05:49:21;24.30;;;14.48;;
42614;SDS011;28754;47.700;7.924;2024-03-08T05:52:08;24.77;;;14.32;;
42614;SDS011;28754;47.700;7.924;2024-03-08T05:54:55;23.70;;;13.05;;
42614;SDS011;28754;47.700;7.924;2024-03-08T05:57:42;24.98;;;13.77;;
42614;SDS011;28754;47.700;7.924;2024-03-08T06:00:29;21.50;;;12.63;;
42614;SDS011;28754;47.700;7.924;2024-03-08T06:03:17;20.75;;;12.82;;
42614;SDS011;28754;47.700;7.924;2024-03-08T06:06:07;23.58;;;13.30;;
42614;SDS011;28754;47.700;7.924;2024-03-08T06:08:53;23.35;;;13.38;;
42614;SDS011;28754;47.700;7.924;2024-03-08T06:11:42;21.67;;;11.52;;
42614;SDS011;28754;47.700;7.924;2024-03-08T06:14:29;18.30;;;11.60;;
42614;SDS011;28754;47.700;7.924;2024-03-08T06:17:15;18.77;;;11.32;;
42614;SDS011;28754;47.700;7.924;2024-03-08T06:20:03;19.13;;;11.73;;
42614;SDS011;28754;47.700;7.924;2024-03-08T06:22:56;15.93;;;10.25;;
42614;SDS011;28754;47.700;7.924;2024-03-08T06:25:43;16.50;;;9.60;;
42614;SDS011;28754;47.700;7.924;2024-03-08T06:28:30;14.93;;;8.68;;
42614;SDS011;28754;47.700;7.924;2024-03-08T06:31:18;14.10;;;8.55;;
42614;SDS011;28754;47.700;7.924;2024-03-08T06:34:05;16.98;;;9.18;;
42614;SDS011;28754;47.700;7.924;2024-03-08T06:36:54;18.55;;;8.75;;
42614;SDS011;28754;47.700;7.924;2024-03-08T06:39:47;15.15;;;8.20;;
42614;SDS011;28754;47.700;7.924;2024-03-08T06:42:37;11.25;;;7.15;;
42614;SDS011;28754;47.700;7.924;2024-03-08T06:45:24;40.20;;;20.73;;
42614;SDS011;28754;47.700;7.924;2024-03-08T06:48:11;12.82;;;7.93;;
42614;SDS011;28754;47.700;7.924;2024-03-08T06:50:58;16.85;;;10.35;;
42614;SDS011;28754;47.700;7.924;2024-03-08T06:53:45;12.50;;;8.20;;
42614;SDS011;28754;47.700;7.924;2024-03-08T06:56:31;13.05;;;8.73;;
42614;SDS011;28754;47.700;7.924;2024-03-08T06:59:18;12.93;;;8.60;;
42614;SDS011;28754;47.700;7.924;2024-03-08T07:02:05;11.57;;;8.07;;
42614;SDS011;28754;47.700;7.924;2024-03-08T07:04:55;14.18;;;9.80;;
42614;SDS011;28754;47.700;7.924;2024-03-08T07:07:42;10.00;;;6.25;;
42614;SDS011;28754;47.700;7.924;2024-03-08T07:10:29;14.40;;;8.90;;
42614;SDS011;28754;47.700;7.924;2024-03-08T07:13:15;10.43;;;6.50;;
42614;SDS011;28754;47.700;7.924;2024-03-08T07:16:02;8.95;;;5.95;;
42614;SDS011;28754;47.700;7.924;2024-03-08T07:18:49;9.73;;;6.43;;
42614;SDS011;28754;47.700;7.924;2024-03-08T07:21:38;9.02;;;5.95;;
42614;SDS011;28754;47.700;7.924;2024-03-08T07:24:25;7.32;;;5.07;;
42614;SDS011;28754;47.700;7.924;2024-03-08T07:27:34;7.20;;;5.20;;
42614;SDS011;28754;47.700;7.924;2024-03-08T07:30:23;9.95;;;5.60;;
42614;SDS011;28754;47.700;7.924;2024-03-08T07:33:29;7.18;;;4.78;;
42614;SDS011;28754;47.700;7.924;2024-03-08T07:36:16;7.20;;;5.07;;
42614;SDS011;28754;47.700;7.924;2024-03-08T07:39:03;5.82;;;4.25;;
42614;SDS011;28754;47.700;7.924;2024-03-08T07:41:55;7.63;;;5.38;;
42614;SDS011;28754;47.700;7.924;2024-03-08T07:44:42;8.70;;;6.00;;
42614;SDS011;28754;47.700;7.924;2024-03-08T07:47:28;5.40;;;3.53;;
42614;SDS011;28754;47.700;7.924;2024-03-08T07:50:18;6.63;;;5.13;;
42614;SDS011;28754;47.700;7.924;2024-03-08T07:53:05;9.98;;;6.05;;
42614;SDS011;28754;47.700;7.924;2024-03-08T07:55:53;9.25;;;6.10;;
42614;SDS011;28754;47.700;7.924;2024-03-08T07:58:40;4.70;;;3.30;;
42614;SDS011;28754;47.700;7.924;2024-03-08T08:01:27;8.60;;;5.88;;
42614;SDS011;28754;47.700;7.924;2024-03-08T08:04:14;7.25;;;4.82;;
42614;SDS011;28754;47.700;7.924;2024-03-08T08:07:03;4.53;;;3.72;;
42614;SDS011;28754;47.700;7.924;2024-03-08T08:09:52;7.57;;;4.45;;
42614;SDS011;28754;47.700;7.924;2024-03-08T08:12:39;11.82;;;7.30;;
42614;SDS011;28754;47.700;7.924;2024-03-08T08:15:27;5.60;;;3.88;;
42614;SDS011;28754;47.700;7.924;2024-03-08T08:18:14;7.68;;;4.63;;
42614;SDS011;28754;47.700;7.924;2024-03-08T08:21:01;10.05;;;7.05;;
42614;SDS011;28754;47.700;7.924;2024-03-08T08:23:48;6.75;;;4.78;;
42614;SDS011;28754;47.700;7.924;2024-03-08T08:26:35;7.97;;;5.43;;
42614;SDS011;28754;47.700;7.924;2024-03-08T08:29:22;5.82;;;4.15;;
42614;SDS011;28754;47.700;7.924;2024-03-08T08:32:08;6.38;;;4.63;;
42614;SDS011;28754;47.700;7.924;2024-03-08T08:34:56;6.20;;;4.18;;
42614;SDS011;28754;47.700;7.924;2024-03-08T08:37:45;6.25;;;4.28;;
42614;SDS011;28754;47.700;7.924;2024-03-08T08:40:33;5.50;;;3.92;;
42614;SDS011;28754;47.700;7.924;2024-03-08T08:43:21;6.85;;;4.28;;
42614;SDS011;28754;47.700;7.924;2024-03-08T08:46:10;6.50;;;5.05;;
42614;SDS011;28754;47.700;7.924;2024-03-08T08:48:59;6.93;;;4.90;;
42614;SDS011;28754;47.700;7.924;2024-03-08T08:51:49;4.85;;;3.72;;
42614;SDS011;28754;47.700;7.924;2024-03-08T08:54:36;5.95;;;4.55;;
42614;SDS011;28754;47.700;7.924;2024-03-08T08:57:23;6.60;;;4.50;;
42614;SDS011;28754;47.700;7.924;2024-03-08T09:00:10;6.57;;;4.70;;
42614;SDS011;28754;47.700;7.924;2024-03-08T09:03:00;8.05;;;5.18;;
42614;SDS011;28754;47.700;7.924;2024-03-08T09:05:48;6.93;;;5.60;;
42614;SDS011;28754;47.700;7.924;2024-03-08T09:08:35;5.53;;;3.88;;
42614;SDS011;28754;47.700;7.924;2024-03-08T09:11:23;6.00;;;4.75;;
42614;SDS011;28754;47.700;7.924;2024-03-08T09:14:11;6.85;;;5.10;;
42614;SDS011;28754;47.700;7.924;2024-03-08T09:16:57;10.13;;;3.90;;
42614;SDS011;28754;47.700;7.924;2024-03-08T09:19:44;5.80;;;4.07;;
42614;SDS011;28754;47.700;7.924;2024-03-08T09:22:31;3.63;;;2.33;;
42614;SDS011;28754;47.700;7.924;2024-03-08T09:25:18;3.03;;;2.15;;
42614;SDS011;28754;47.700;7.924;2024-03-08T09:28:05;6.18;;;2.80;;
42614;SDS011;28754;47.700;7.924;2024-03-08T09:30:51;5.13;;;3.63;;
42614;SDS011;28754;47.700;7.924;2024-03-08T09:33:38;6.45;;;4.25;;
42614;SDS011;28754;47.700;7.924;2024-03-08T09:36:25;7.38;;;4.95;;
42614;SDS011;28754;47.700;7.924;2024-03-08T09:39:11;6.53;;;5.20;;
42614;SDS011;28754;47.700;7.924;2024-03-08T09:42:02;7.00;;;4.03;;
42614;SDS011;28754;47.700;7.924;2024-03-08T09:44:50;7.60;;;5.80;;
42614;SDS011;28754;47.700;7.924;2024-03-08T09:47:44;10.48;;;6.00;;
42614;SDS011;28754;47.700;7.924;2024-03-08T09:50:31;7.50;;;4.93;;
42614;SDS011;28754;47.700;7.924;2024-03-08T09:53:18;7.35;;;4.95;;
42614;SDS011;28754;47.700;7.924;2024-03-08T09:56:05;6.72;;;4.38;;
42614;SDS011;28754;47.700;7.924;2024-03-08T09:58:52;6.18;;;3.92;;
42614;SDS011;28754;47.700;7.924;2024-03-08T10:01:57;7.03;;;3.55;;
42614;SDS011;28754;47.700;7.924;2024-03-08T10:04:45;6.13;;;3.97;;
42614;SDS011;28754;47.700;7.924;2024-03-08T10:07:34;8.80;;;5.95;;
42614;SDS011;28754;47.700;7.924;2024-03-08T10:10:21;6.93;;;4.22;;
42614;SDS011;28754;47.700;7.924;2024-03-08T10:13:08;6.45;;;4.00;;
42614;SDS011;28754;47.700;7.924;2024-03-08T10:15:56;7.05;;;4.15;;
42614;SDS011;28754;47.700;7.924;2024-03-08T10:18:42;9.25;;;6.22;;
42614;SDS011;28754;47.700;7.924;2024-03-08T10:21:32;8.43;;;4.50;;
42614;SDS011;28754;47.700;7.924;2024-03-08T10:24:19;7.88;;;4.78;;
42614;SDS011;28754;47.700;7.924;2024-03-08T10:27:06;7.07;;;5.03;;
42614;SDS011;28754;47.700;7.924;2024-03-08T10:29:53;7.50;;;4.72;;
42614;SDS011;28754;47.700;7.924;2024-03-08T10:32:40;8.82;;;4.93;;
42614;SDS011;28754;47.700;7.924;2024-03-08T10:35:27;8.00;;;5.25;;
42614;SDS011;28754;47.700;7.924;2024-03-08T10:38:14;6.97;;;5.05;;
42614;SDS011;28754;47.700;7.924;2024-03-08T10:41:09;8.43;;;4.47;;
42614;SDS011;28754;47.700;7.924;2024-03-08T10:44:05;8.18;;;5.75;;
42614;SDS011;28754;47.700;7.924;2024-03-08T10:47:15;8.90;;;5.13;;
42614;SDS011;28754;47.700;7.924;2024-03-08T10:50:12;9.13;;;5.80;;
42614;SDS011;28754;47.700;7.924;2024-03-08T10:53:02;8.77;;;5.43;;
42614;SDS011;28754;47.700;7.924;2024-03-08T10:55:52;8.77;;;5.35;;
42614;SDS011;28754;47.700;7.924;2024-03-08T10:58:42;9.73;;;7.22;;
42614;SDS011;28754;47.700;7.924;2024-03-08T11:01:30;12.32;;;7.75;;
42614;SDS011;28754;47.700;7.924;2024-03-08T11:04:17;10.85;;;7.28;;
42614;SDS011;28754;47.700;7.924;2024-03-08T11:07:08;12.05;;;7.72;;
42614;SDS011;28754;47.700;7.924;2024-03-08T11:10:03;10.38;;;7.35;;
42614;SDS011;28754;47.700;7.924;2024-03-08T11:12:56;12.73;;;8.20;;
42614;SDS011;28754;47.700;7.924;2024-03-08T11:15:44;14.10;;;9.75;;
42614;SDS011;28754;47.700;7.924;2024-03-08T11:18:33;11.13;;;8.00;;
42614;SDS011;28754;47.700;7.924;2024-03-08T11:21:20;15.15;;;9.27;;
42614;SDS011;28754;47.700;7.924;2024-03-08T11:24:12;11.65;;;8.32;;
42614;SDS011;28754;47.700;7.924;2024-03-08T11:27:03;13.40;;;8.02;;
42614;SDS011;28754;47.700;7.924;2024-03-08T11:30:05;11.00;;;7.78;;
42614;SDS011;28754;47.700;7.924;2024-03-08T11:32:57;12.13;;;8.45;;
42614;SDS011;28754;47.700;7.924;2024-03-08T11:35:49;11.85;;;8.60;;
42614;SDS011;28754;47.700;7.924;2024-03-08T11:38:39;11.43;;;8.52;;
42614;SDS011;28754;47.700;7.924;2024-03-08T11:41:27;9.82;;;7.15;;
42614;SDS011;28754;47.700;7.924;2024-03-08T11:44:17;10.25;;;7.57;;
42614;SDS011;28754;47.700;7.924;2024-03-08T11:47:08;14.02;;;7.45;;
42614;SDS011;28754;47.700;7.924;2024-03-08T11:49:56;12.18;;;8.75;;
42614;SDS011;28754;47.700;7.924;2024-03-08T11:52:43;9.13;;;6.32;;
42614;SDS011;28754;47.700;7.924;2024-03-08T11:55:30;11.25;;;7.28;;
42614;SDS011;28754;47.700;7.924;2024-03-08T11:58:21;10.00;;;7.18;;
42614;SDS011;28754;47.700;7.924;2024-03-08T12:01:09;11.43;;;7.13;;
42614;SDS011;28754;47.700;7.924;2024-03-08T12:03:59;10.95;;;7.03;;
42614;SDS011;28754;47.700;7.924;2024-03-08T12:06:46;8.52;;;6.07;;
42614;SDS011;28754;47.700;7.924;2024-03-08T12:09:34;10.07;;;6.60;;
42614;SDS011;28754;47.700;7.924;2024-03-08T12:12:24;9.32;;;6.30;;
42614;SDS011;28754;47.700;7.924;2024-03-08T12:15:11;7.88;;;5.82;;
42614;SDS011;28754;47.700;7.924;2024-03-08T12:17:58;9.50;;;5.03;;
42614;SDS011;28754;47.700;7.924;2024-03-08T12:20:46;8.90;;;6.53;;
42614;SDS011;28754;47.700;7.924;2024-03-08T12:23:36;9.63;;;5.78;;
42614;SDS011;28754;47.700;7.924;2024-03-08T12:26:25;7.10;;;4.15;;
42614;SDS011;28754;47.700;7.924;2024-03-08T12:32:08;9.02;;;4.35;;
42614;SDS011;28754;47.700;7.924;2024-03-08T12:34:57;6.13;;;3.45;;
42614;SDS011;28754;47.700;7.924;2024-03-08T12:37:44;12.40;;;3.08;;
42614;SDS011;28754;47.700;7.924;2024-03-08T12:40:32;8.50;;;3.60;;
42614;SDS011;28754;47.700;7.924;2024-03-08T12:43:26;4.85;;;3.33;;
42614;SDS011;28754;47.700;7.924;2024-03-08T12:46:19;5.30;;;2.92;;
42614;SDS011;28754;47.700;7.924;2024-03-08T12:49:07;6.50;;;4.28;;
42614;SDS011;28754;47.700;7.924;2024-03-08T12:51:55;3.40;;;2.28;;
42614;SDS011;28754;47.700;7.924;2024-03-08T12:54:42;4.40;;;3.03;;
42614;SDS011;28754;47.700;7.924;2024-03-08T12:57:29;5.05;;;2.90;;
42614;SDS011;28754;47.700;7.924;2024-03-08T13:00:15;3.33;;;2.67;;
42614;SDS011;28754;47.700;7.924;2024-03-08T13:03:05;6.95;;;4.55;;
42614;SDS011;28754;47.700;7.924;2024-03-08T13:05:52;5.13;;;3.25;;
42614;SDS011;28754;47.700;7.924;2024-03-08T13:08:39;5.68;;;3.38;;
42614;SDS011;28754;47.700;7.924;2024-03-08T13:11:26;7.22;;;2.42;;
42614;SDS011;28754;47.700;7.924;2024-03-08T13:14:13;6.68;;;3.20;;
42614;SDS011;28754;47.700;7.924;2024-03-08T13:17:00;2.92;;;1.60;;
42614;SDS011;28754;47.700;7.924;2024-03-08T13:19:46;4.05;;;2.10;;
42614;SDS011;28754;47.700;7.924;2024-03-08T13:22:33;4.78;;;2.70;;
42614;SDS011;28754;47.700;7.924;2024-03-08T13:25:20;3.70;;;2.20;;
42614;SDS011;28754;47.700;7.924;2024-03-08T13:28:06;5.50;;;3.55;;
42614;SDS011;28754;47.700;7.924;2024-03-08T13:30:53;4.88;;;3.28;;
42614;SDS011;28754;47.700;7.924;2024-03-08T13:33:40;4.47;;;2.88;;
42614;SDS011;28754;47.700;7.924;2024-03-08T13:36:32;3.92;;;2.45;;
42614;SDS011;28754;47.700;7.924;2024-03-08T13:39:25;5.00;;;3.17;;
42614;SDS011;28754;47.700;7.924;2024-03-08T13:42:12;5.18;;;3.67;;
42614;SDS011;28754;47.700;7.924;2024-03-08T13:45:00;4.28;;;3.17;;
42614;SDS011;28754;47.700;7.924;2024-03-08T13:47:48;5.57;;;2.55;;
42614;SDS011;28754;47.700;7.924;2024-03-08T13:50:37;5.22;;;3.17;;
42614;SDS011;28754;47.700;7.924;2024-03-08T13:53:24;4.57;;;2.08;;
42614;SDS011;28754;47.700;7.924;2024-03-08T13:56:10;3.90;;;2.60;;
42614;SDS011;28754;47.700;7.924;2024-03-08T13:58:57;6.10;;;2.42;;
42614;SDS011;28754;47.700;7.924;2024-03-08T14:01:43;3.63;;;2.17;;
42614;SDS011;28754;47.700;7.924;2024-03-08T14:04:30;4.03;;;2.78;;
42614;SDS011;28754;47.700;7.924;2024-03-08T14:07:17;4.35;;;2.80;;
42614;SDS011;28754;47.700;7.924;2024-03-08T14:10:04;5.45;;;3.40;;
42614;SDS011;28754;47.700;7.924;2024-03-08T14:12:52;4.95;;;3.17;;
42614;SDS011;28754;47.700;7.924;2024-03-08T14:15:39;6.00;;;3.10;;
42614;SDS011;28754;47.700;7.924;2024-03-08T14:18:28;4.43;;;2.83;;
42614;SDS011;28754;47.700;7.924;2024-03-08T14:21:15;4.07;;;2.97;;
42614;SDS011;28754;47.700;7.924;2024-03-08T14:24:03;6.47;;;4.00;;
42614;SDS011;28754;47.700;7.924;2024-03-08T14:26:50;4.13;;;2.75;;
42614;SDS011;28754;47.700;7.924;2024-03-08T14:29:38;4.75;;;3.33;;
42614;SDS011;28754;47.700;7.924;2024-03-08T14:32:24;4.63;;;3.03;;
42614;SDS011;28754;47.700;7.924;2024-03-08T14:35:11;4.47;;;2.95;;
42614;SDS011;28754;47.700;7.924;2024-03-08T14:37:58;3.80;;;2.55;;
42614;SDS011;28754;47.700;7.924;2024-03-08T14:40:45;6.22;;;3.95;;
42614;SDS011;28754;47.700;7.924;2024-03-08T14:43:33;5.65;;;3.53;;
42614;SDS011;28754;47.700;7.924;2024-03-08T14:46:19;3.88;;;2.50;;
42614;SDS011;28754;47.700;7.924;2024-03-08T14:49:09;6.95;;;4.25;;
42614;SDS011;28754;47.700;7.924;2024-03-08T14:55:13;4.50;;;3.30;;
42614;SDS011;28754;47.700;7.924;2024-03-08T14:58:00;7.68;;;5.22;;
42614;SDS011;28754;47.700;7.924;2024-03-08T15:00:47;9.10;;;5.03;;
42614;SDS011;28754;47.700;7.924;2024-03-08T15:03:35;5.97;;;3.65;;
42614;SDS011;28754;47.700;7.924;2024-03-08T15:06:23;8.35;;;4.47;;
42614;SDS011;28754;47.700;7.924;2024-03-08T15:09:10;5.47;;;3.88;;
42614;SDS011;28754;47.700;7.924;2024-03-08T15:11:58;3.90;;;2.80;;
42614;SDS011;28754;47.700;7.924;2024-03-08T15:14:44;4.80;;;3.15;;
42614;SDS011;28754;47.700;7.924;2024-03-08T15:17:32;4.38;;;2.75;;
42614;SDS011;28754;47.700;7.924;2024-03-08T15:20:18;3.47;;;2.47;;
42614;SDS011;28754;47.700;7.924;2024-03-08T15:23:14;3.83;;;2.30;;
42614;SDS011;28754;47.700;7.924;2024-03-08T15:26:02;4.22;;;2.75;;
42614;SDS011;28754;47.700;7.924;2024-03-08T15:28:53;5.28;;;2.92;;
42614;SDS011;28754;47.700;7.924;2024-03-08T15:31:40;4.75;;;3.03;;
42614;SDS011;28754;47.700;7.924;2024-03-08T15:34:28;5.40;;;2.95;;
42614;SDS011;28754;47.700;7.924;2024-03-08T15:37:17;6.63;;;3.95;;
42614;SDS011;28754;47.700;7.924;2024-03-08T15:40:04;4.65;;;2.90;;
42614;SDS011;28754;47.700;7.924;2024-03-08T15:42:56;6.25;;;3.28;;
42614;SDS011;28754;47.700;7.924;2024-03-08T15:45:44;6.18;;;4.20;;
42614;SDS011;28754;47.700;7.924;2024-03-08T15:48:32;5.57;;;4.05;;
42614;SDS011;28754;47.700;7.924;2024-03-08T15:51:21;5.32;;;3.28;;
42614;SDS011;28754;47.700;7.924;2024-03-08T15:54:08;4.15;;;2.58;;
42614;SDS011;28754;47.700;7.924;2024-03-08T15:56:56;3.50;;;2.30;;
42614;SDS011;28754;47.700;7.924;2024-03-08T15:59:43;4.43;;;2.80;;
42614;SDS011;28754;47.700;7.924;2024-03-08T16:02:31;4.13;;;2.63;;
42614;SDS011;28754;47.700;7.924;2024-03-08T16:05:19;4.07;;;2.30;;
42614;SDS011;28754;47.700;7.924;2024-03-08T16:08:05;5.07;;;3.20;;
42614;SDS011;28754;47.700;7.924;2024-03-08T16:11:00;5.15;;;3.28;;
42614;SDS011;28754;47.700;7.924;2024-03-08T16:13:51;5.07;;;3.08;;
42614;SDS011;28754;47.700;7.924;2024-03-08T16:16:38;3.13;;;2.30;;
42614;SDS011;28754;47.700;7.924;2024-03-08T16:19:25;5.72;;;3.58;;
42614;SDS011;28754;47.700;7.924;2024-03-08T16:22:11;4.75;;;2.90;;
42614;SDS011;28754;47.700;7.924;2024-03-08T16:24:58;8.25;;;3.28;;
42614;SDS011;28754;47.700;7.924;2024-03-08T16:27:45;6.03;;;2.97;;
42614;SDS011;28754;47.700;7.924;2024-03-08T16:30:33;4.97;;;2.97;;
42614;SDS011;28754;47.700;7.924;2024-03-08T16:33:21;4.45;;;2.92;;
42614;SDS011;28754;47.700;7.924;2024-03-08T16:36:08;7.85;;;3.28;;
42614;SDS011;28754;47.700;7.924;2024-03-08T16:38:56;6.05;;;3.53;;
42614;SDS011;28754;47.700;7.924;2024-03-08T16:41:44;6.97;;;3.38;;
42614;SDS011;28754;47.700;7.924;2024-03-08T16:44:30;4.80;;;2.95;;